Time;durP1;ratioP1;P1;durP2;ratioP2;P2;SDS_P1;SDS_P2;PMS_P1;PMS_P2;Temp;Humidity;BMP_temperature;BMP_pressure;BME280_temperature;BME280_humidity;BME280_pressure;Samples;Min_cycle;Max_cycle;Signal;HPM_P1;HPM_P2
2024/01/02 00:01:45;;;;;;;4.23;1.53;;;8.00;38.30;;;;;;10547696;27;20245;-74
2024/01/02 00:06:49;;;;;;;2.60;1.40;;;8.00;38.30;;;;;;10549143;27;20236;-74
2024/01/02 00:11:53;;;;;;;4.57;1.63;;;8.00;38.40;;;;;;10543279;27;20231;-74
2024/01/02 00:16:57;;;;;;;3.47;1.50;;;8.00;38.60;;;;;;10541583;28;20234;-74
2024/01/02 00:22:00;;;;;;;3.73;1.70;;;8.00;38.50;;;;;;10543641;28;20227;-74
2024/01/02 00:27:05;;;;;;;4.03;1.93;;;8.00;38.40;;;;;;10547258;27;20384;-74
2024/01/02 00:32:08;;;;;;;4.07;2.47;;;8.00;38.60;;;;;;10544199;27;20597;-74
2024/01/02 00:37:11;;;;;;;4.00;2.40;;;8.00;38.40;;;;;;10550405;28;20259;-74
2024/01/02 00:42:16;;;;;;;3.80;1.70;;;8.00;38.40;;;;;;10543772;28;20235;-74
2024/01/02 00:47:21;;;;;;;2.40;1.40;;;8.00;38.50;;;;;;10546224;28;20314;-74
2024/01/02 00:52:24;;;;;;;1.60;1.50;;;8.00;38.30;;;;;;10541795;28;20253;-75
2024/01/02 00:57:29;;;;;;;2.90;1.77;;;8.10;39.00;;;;;;10547342;28;20261;-74
2024/01/02 01:02:32;;;;;;;2.37;1.60;;;8.10;38.40;;;;;;10545490;28;20220;-74
2024/01/02 01:07:36;;;;;;;2.77;1.40;;;8.10;38.30;;;;;;10544884;28;20233;-74
2024/01/02 01:12:40;;;;;;;2.40;1.30;;;8.20;38.40;;;;;;10553796;28;20305;-74
2024/01/02 01:17:44;;;;;;;1.93;1.40;;;8.20;38.40;;;;;;10544496;28;22027;-74
2024/01/02 01:22:48;;;;;;;3.77;1.47;;;8.20;38.30;;;;;;10545874;28;20224;-74
2024/01/02 01:27:52;;;;;;;1.97;1.40;;;8.20;38.50;;;;;;10548994;28;20233;-74
2024/01/02 01:32:56;;;;;;;2.63;1.37;;;8.20;38.50;;;;;;10543639;28;20301;-74
2024/01/02 01:37:59;;;;;;;2.57;1.43;;;8.20;38.40;;;;;;10544580;28;20231;-74
2024/01/02 01:43:11;;;;;;;2.00;1.43;;;8.20;38.30;;;;;;10547950;28;20227;-74
2024/01/02 01:48:15;;;;;;;2.93;1.33;;;8.20;38.30;;;;;;10543686;28;20295;-74
2024/01/02 01:53:19;;;;;;;1.43;1.20;;;8.30;38.40;;;;;;10549899;28;20306;-74
2024/01/02 01:58:23;;;;;;;1.30;1.20;;;8.30;38.30;;;;;;10546724;28;20292;-74
2024/01/02 02:03:28;;;;;;;1.50;1.40;;;8.40;38.40;;;;;;10550393;28;20222;-74
2024/01/02 02:08:32;;;;;;;1.50;1.20;;;8.40;38.20;;;;;;10543515;28;20986;-74
2024/01/02 02:13:36;;;;;;;1.77;1.20;;;8.40;38.10;;;;;;10540663;28;20226;-74
2024/01/02 02:18:40;;;;;;;1.60;1.30;;;8.40;38.10;;;;;;10545086;28;20227;-74
2024/01/02 02:23:44;;;;;;;1.73;1.10;;;8.40;38.10;;;;;;10545690;28;20231;-74
2024/01/02 02:28:47;;;;;;;1.97;1.40;;;8.40;38.20;;;;;;10545040;28;20229;-74
2024/01/02 02:33:51;;;;;;;2.03;1.27;;;8.40;38.10;;;;;;10545537;28;20237;-74
2024/01/02 02:38:55;;;;;;;3.47;1.50;;;8.40;38.00;;;;;;10549639;28;20325;-74
2024/01/02 02:43:58;;;;;;;2.87;1.37;;;8.40;37.90;;;;;;10551663;27;20321;-74
2024/01/02 02:49:01;;;;;;;2.97;1.30;;;8.40;37.90;;;;;;10558453;28;20930;-74
2024/01/02 02:54:06;;;;;;;1.73;1.17;;;8.40;37.90;;;;;;10553363;27;20412;-74
2024/01/02 02:59:10;;;;;;;1.87;1.30;;;8.40;37.90;;;;;;10553031;28;20219;-74
2024/01/02 03:04:13;;;;;;;2.27;1.40;;;8.40;37.90;;;;;;10554528;28;20262;-74
2024/01/02 03:09:18;;;;;;;2.47;2.27;;;8.40;37.90;;;;;;10558111;27;20313;-74
2024/01/02 03:14:21;;;;;;;2.27;1.60;;;8.40;37.90;;;;;;10551027;27;20223;-74
2024/01/02 03:19:25;;;;;;;3.33;1.93;;;8.40;37.80;;;;;;10557866;27;20299;-74
2024/01/02 03:24:29;;;;;;;1.83;1.37;;;8.40;37.80;;;;;;10547853;27;20223;-74
2024/01/02 03:29:33;;;;;;;2.00;1.50;;;8.50;37.90;;;;;;10550721;27;20238;-74
2024/01/02 03:34:37;;;;;;;4.17;2.57;;;8.50;37.80;;;;;;10555953;28;20727;-74
2024/01/02 03:39:42;;;;;;;2.20;1.30;;;8.50;37.80;;;;;;10552131;28;20746;-74
2024/01/02 03:44:45;;;;;;;1.63;1.30;;;8.50;37.70;;;;;;10551268;28;20227;-74
2024/01/02 03:49:48;;;;;;;3.00;1.20;;;8.50;37.80;;;;;;10547990;28;20751;-74
2024/01/02 03:54:53;;;;;;;2.47;1.77;;;8.50;37.80;;;;;;10545866;28;20654;-74
2024/01/02 03:59:56;;;;;;;1.60;1.40;;;8.50;37.70;;;;;;10550676;27;21063;-74
2024/01/02 04:04:59;;;;;;;1.40;1.30;;;8.50;37.70;;;;;;10550263;27;20227;-74
2024/01/02 04:10:05;;;;;;;1.50;1.10;;;8.50;37.70;;;;;;10548552;28;20219;-74
2024/01/02 04:15:08;;;;;;;1.80;1.10;;;8.60;37.60;;;;;;10546452;28;20233;-74
2024/01/02 04:20:12;;;;;;;1.23;1.13;;;8.60;37.60;;;;;;10550266;28;20224;-74
2024/01/02 04:25:17;;;;;;;4.17;1.13;;;8.60;37.60;;;;;;10556368;27;20241;-74
2024/01/02 04:30:20;;;;;;;1.57;1.00;;;8.60;37.60;;;;;;10545130;28;20229;-74
2024/01/02 04:35:23;;;;;;;0.90;0.90;;;8.60;37.60;;;;;;10546444;28;20226;-74
2024/01/02 04:40:27;;;;;;;1.60;1.50;;;8.60;37.60;;;;;;10548893;28;20765;-74
2024/01/02 04:45:31;;;;;;;3.73;2.47;;;8.60;37.60;;;;;;10547462;28;20223;-74
2024/01/02 04:50:34;;;;;;;2.27;1.30;;;8.70;37.80;;;;;;10549636;28;20745;-74
2024/01/02 04:55:38;;;;;;;1.83;1.57;;;8.70;37.90;;;;;;10551940;28;20724;-74
2024/01/02 05:00:42;;;;;;;1.77;1.23;;;8.60;38.10;;;;;;10545916;28;20260;-74
2024/01/02 05:05:45;;;;;;;3.00;1.90;;;8.60;38.20;;;;;;10544744;28;20232;-74
2024/01/02 05:10:50;;;;;;;2.00;1.20;;;8.60;38.40;;;;;;10542720;27;20219;-74
2024/01/02 05:15:53;;;;;;;1.53;1.10;;;8.50;38.70;;;;;;10546432;28;20218;-74
2024/01/02 05:21:00;;;;;;;2.97;1.20;;;8.50;38.90;;;;;;10544784;28;20231;-74
2024/01/02 05:26:04;;;;;;;1.47;0.90;;;8.40;39.00;;;;;;10547878;27;20219;-74
2024/01/02 05:31:08;;;;;;;1.57;1.00;;;8.40;39.50;;;;;;10544440;27;20646;-74
2024/01/02 05:36:11;;;;;;;0.80;0.80;;;8.40;39.60;;;;;;10541444;28;20219;-74
2024/01/02 05:41:15;;;;;;;1.00;0.90;;;8.40;39.60;;;;;;10546227;28;20315;-74
2024/01/02 05:46:18;;;;;;;1.00;1.00;;;8.40;39.60;;;;;;10541797;28;20226;-74
2024/01/02 05:51:22;;;;;;;0.80;0.80;;;8.40;39.60;;;;;;10545422;28;20310;-74
2024/01/02 05:56:26;;;;;;;1.93;0.80;;;8.50;39.70;;;;;;10547497;28;20292;-74
2024/01/02 06:01:29;;;;;;;1.63;1.30;;;8.50;40.10;;;;;;10545443;28;20237;-74
2024/01/02 06:06:32;;;;;;;1.10;1.10;;;8.50;39.90;;;;;;10546522;28;20600;-74
2024/01/02 06:11:37;;;;;;;1.20;0.97;;;8.60;40.20;;;;;;10547087;28;20223;-74
2024/01/02 06:16:40;;;;;;;1.80;0.70;;;8.60;40.50;;;;;;10554006;28;20242;-74
2024/01/02 06:21:43;;;;;;;1.73;0.70;;;8.60;40.40;;;;;;10558150;28;20737;-74
2024/01/02 06:26:48;;;;;;;0.93;0.80;;;8.60;40.60;;;;;;10559116;28;20668;-74
2024/01/02 06:31:51;;;;;;;0.70;0.70;;;8.60;40.70;;;;;;10554600;28;20241;-74
2024/01/02 06:36:54;;;;;;;1.80;0.87;;;8.60;40.70;;;;;;10555696;28;20227;-74
2024/01/02 06:41:59;;;;;;;2.33;0.70;;;8.60;40.70;;;;;;10554376;27;20227;-76
2024/01/02 06:47:02;;;;;;;0.83;0.83;;;8.50;41.00;;;;;;10554204;28;20229;-74
2024/01/02 06:52:06;;;;;;;1.30;0.80;;;8.50;40.70;;;;;;10551266;27;20216;-74
2024/01/02 06:57:11;;;;;;;1.67;1.40;;;8.40;41.10;;;;;;10552176;28;20776;-74
2024/01/02 07:02:14;;;;;;;1.17;0.90;;;8.40;41.10;;;;;;10542182;28;20223;-74
2024/01/02 07:07:17;;;;;;;0.93;0.93;;;8.40;41.30;;;;;;10553113;28;20215;-74
2024/01/02 07:12:22;;;;;;;1.03;0.90;;;8.30;41.10;;;;;;10544351;28;20229;-74
2024/01/02 07:17:25;;;;;;;1.73;1.00;;;8.30;41.50;;;;;;10552164;28;20226;-74
2024/01/02 07:22:28;;;;;;;1.90;0.90;;;8.30;41.30;;;;;;10547210;28;20250;-74
2024/01/02 07:27:33;;;;;;;0.77;0.77;;;8.30;41.40;;;;;;10551532;28;20219;-74
2024/01/02 07:32:36;;;;;;;1.13;1.10;;;8.30;41.80;;;;;;10550206;28;20318;-75
2024/01/02 07:37:40;;;;;;;1.30;1.20;;;8.30;41.40;;;;;;10545129;28;20223;-75
2024/01/02 07:42:45;;;;;;;1.50;1.40;;;8.30;41.30;;;;;;10551203;27;20319;-74
2024/01/02 07:47:48;;;;;;;1.60;0.90;;;8.40;41.70;;;;;;10551797;27;20231;-75
2024/01/02 07:52:51;;;;;;;1.27;1.00;;;8.40;41.40;;;;;;10549730;27;20231;-74
2024/01/02 07:57:56;;;;;;;1.13;0.97;;;8.40;41.50;;;;;;10548689;28;20231;-74
2024/01/02 08:02:59;;;;;;;1.13;1.03;;;8.50;41.80;;;;;;10548568;28;20281;-75
2024/01/02 08:08:03;;;;;;;1.00;0.97;;;8.50;41.50;;;;;;10550004;28;20319;-74
2024/01/02 08:13:08;;;;;;;1.50;1.30;;;8.50;41.60;;;;;;10547472;27;20219;-74
2024/01/02 08:18:11;;;;;;;2.10;1.90;;;8.60;42.20;;;;;;10546657;28;20310;-75
2024/01/02 08:23:15;;;;;;;6.20;4.60;;;8.60;42.10;;;;;;10546138;27;20313;-75
2024/01/02 08:28:20;;;;;;;5.63;4.57;;;8.60;41.80;;;;;;10545936;28;20500;-75
2024/01/02 08:33:23;;;;;;;4.17;3.03;;;8.70;42.20;;;;;;10550562;28;20234;-75
2024/01/02 08:38:26;;;;;;;2.57;1.70;;;8.70;41.90;;;;;;10545717;28;20236;-75
2024/01/02 08:43:31;;;;;;;2.57;2.07;;;8.80;42.00;;;;;;10550271;27;20232;-75
2024/01/02 08:48:35;;;;;;;3.27;3.07;;;8.80;42.30;;;;;;10550049;28;20227;-75
2024/01/02 08:53:38;;;;;;;2.83;2.63;;;8.90;42.00;;;;;;10551099;28;20907;-75
2024/01/02 08:58:43;;;;;;;1.77;1.67;;;8.80;42.00;;;;;;10543961;28;20232;-75
2024/01/02 09:03:47;;;;;;;2.60;2.10;;;8.80;42.40;;;;;;10547545;28;20320;-75
2024/01/02 09:08:50;;;;;;;1.60;1.50;;;8.70;42.00;;;;;;10545731;28;20223;-75
2024/01/02 09:13:55;;;;;;;2.10;1.90;;;8.70;42.10;;;;;;10546868;28;20273;-74
2024/01/02 09:19:00;;;;;;;2.77;2.30;;;8.60;42.50;;;;;;10549882;28;20258;-75
2024/01/02 09:24:03;;;;;;;2.70;1.80;;;8.60;42.30;;;;;;10547940;28;20229;-75
2024/01/02 09:29:08;;;;;;;1.20;1.10;;;8.60;42.50;;;;;;10550365;27;20235;-75
2024/01/02 09:34:13;;;;;;;0.97;0.97;;;8.60;44.30;;;;;;10547725;28;20227;-75
2024/01/02 09:39:16;;;;;;;1.60;0.90;;;8.60;44.20;;;;;;10549739;27;20231;-75
2024/01/02 09:44:37;;;;;;;0.83;0.80;;;8.80;44.20;;;;;;10549868;28;20223;-75
2024/01/02 09:49:54;;;;;;;0.80;0.80;;;9.00;46.00;;;;;;10548889;28;20226;-75
2024/01/02 09:55:10;;;;;;;1.23;0.80;;;9.20;45.60;;;;;;10545019;28;20694;-75
2024/01/02 10:00:25;;;;;;;2.60;1.17;;;9.30;45.70;;;;;;10550907;28;20242;-75
2024/01/02 10:05:44;;;;;;;0.80;0.80;;;9.50;45.30;;;;;;10547031;28;20222;-75
2024/01/02 10:10:59;;;;;;;0.77;0.77;;;9.60;45.40;;;;;;10541493;28;20223;-75
2024/01/02 10:16:11;;;;;;;0.70;0.70;;;9.70;45.30;;;;;;10546962;28;20223;-75
2024/01/02 10:21:27;;;;;;;0.73;0.70;;;9.80;47.00;;;;;;10544379;28;20219;-75
2024/01/02 10:26:38;;;;;;;0.60;0.60;;;9.90;45.40;;;;;;10545274;28;20251;-75
2024/01/02 10:31:52;;;;;;;1.10;0.80;;;10.00;44.00;;;;;;10546379;28;20234;-75
2024/01/02 10:36:58;;;;;;;0.90;0.90;;;10.10;44.30;;;;;;10546664;28;20227;-75
2024/01/02 10:42:16;;;;;;;0.90;0.90;;;10.20;43.70;;;;;;10544992;28;20240;-75
2024/01/02 10:47:33;;;;;;;0.70;0.70;;;10.20;44.10;;;;;;10541883;28;20235;-75
2024/01/02 10:52:46;;;;;;;0.73;0.70;;;10.30;44.80;;;;;;10546127;28;20223;-75
2024/01/02 10:58:02;;;;;;;0.80;0.80;;;10.30;44.00;;;;;;10546956;28;20317;-75
2024/01/02 11:03:10;;;;;;;1.53;1.10;;;10.40;44.10;;;;;;10546595;28;20262;-75
2024/01/02 11:08:20;;;;;;;1.60;0.90;;;10.40;44.20;;;;;;10550262;27;20237;-75
2024/01/02 11:13:26;;;;;;;0.80;0.70;;;10.40;43.90;;;;;;10556052;27;20226;-75
2024/01/02 11:18:32;;;;;;;1.80;0.90;;;10.50;43.50;;;;;;10550805;27;20638;-75
2024/01/02 11:23:44;;;;;;;1.03;0.93;;;10.50;43.80;;;;;;10550546;27;20640;-75
2024/01/02 11:28:50;;;;;;;1.07;0.90;;;10.60;44.30;;;;;;10551447;27;20310;-75
2024/01/02 11:34:09;;;;;;;1.00;1.00;;;10.60;43.70;;;;;;10551231;27;20224;-75
2024/01/02 11:39:14;;;;;;;1.40;0.93;;;10.60;44.40;;;;;;10553017;27;20280;-75
2024/01/02 11:44:32;;;;;;;2.30;0.80;;;10.60;43.40;;;;;;10551079;27;20227;-75
2024/01/02 11:49:43;;;;;;;1.00;1.00;;;10.70;45.20;;;;;;10550615;27;20250;-75
2024/01/02 11:54:57;;;;;;;0.90;0.80;;;10.70;44.10;;;;;;10546805;28;20277;-75
2024/01/02 12:00:06;;;;;;;0.60;0.60;;;10.80;44.30;;;;;;10548963;27;20236;-75
2024/01/02 12:05:20;;;;;;;0.80;0.80;;;10.80;44.00;;;;;;10551056;27;20219;-75
2024/01/02 12:10:30;;;;;;;0.80;0.80;;;10.90;44.50;;;;;;10549816;27;20239;-75
2024/01/02 12:15:41;;;;;;;1.10;1.00;;;10.90;43.90;;;;;;10546471;27;20747;-75
2024/01/02 12:20:53;;;;;;;1.17;1.00;;;10.90;44.30;;;;;;10546308;27;20240;-75
2024/01/02 12:26:02;;;;;;;1.40;1.30;;;11.00;44.70;;;;;;10550131;28;20744;-75
2024/01/02 12:31:11;;;;;;;1.23;1.07;;;11.00;44.00;;;;;;10546590;28;20322;-75
2024/01/02 12:36:28;;;;;;;0.73;0.73;;;11.10;44.40;;;;;;10549338;27;20222;-75
2024/01/02 12:41:36;;;;;;;0.83;0.83;;;11.10;43.80;;;;;;10541704;27;20880;-75
2024/01/02 12:46:48;;;;;;;1.00;0.83;;;11.20;44.00;;;;;;10546586;28;20586;-75
2024/01/02 12:51:56;;;;;;;0.80;0.80;;;11.20;44.00;;;;;;10545629;28;20224;-75
2024/01/02 12:57:03;;;;;;;0.63;0.63;;;11.30;43.60;;;;;;10548458;27;20253;-75
2024/01/02 13:02:08;;;;;;;1.37;0.80;;;11.40;43.60;;;;;;10549010;27;20214;-75
2024/01/02 13:07:12;;;;;;;1.40;1.30;;;11.50;43.20;;;;;;10545430;28;20737;-75
2024/01/02 13:12:17;;;;;;;0.87;0.87;;;11.50;43.20;;;;;;10538131;28;20710;-75
2024/01/02 13:17:20;;;;;;;0.70;0.70;;;11.60;43.00;;;;;;10542246;28;20878;-75
2024/01/02 13:22:26;;;;;;;0.97;0.97;;;11.60;42.80;;;;;;10545321;28;20858;-75
2024/01/02 13:27:30;;;;;;;1.17;0.80;;;11.60;43.00;;;;;;10547051;28;20226;-74
2024/01/02 13:32:35;;;;;;;0.80;0.80;;;11.70;43.20;;;;;;10547798;28;20344;-75
2024/01/02 13:37:40;;;;;;;0.70;0.70;;;11.70;42.90;;;;;;10547913;28;20226;-75
2024/01/02 13:42:43;;;;;;;1.00;1.00;;;11.70;42.80;;;;;;10546704;28;20740;-75
2024/01/02 13:47:46;;;;;;;0.73;0.73;;;11.70;42.70;;;;;;10539921;28;20227;-74
2024/01/02 13:53:01;;;;;;;0.70;0.70;;;11.70;42.60;;;;;;10544545;28;20250;-75
2024/01/02 13:58:09;;;;;;;1.23;1.23;;;11.70;43.00;;;;;;10545901;28;20718;-75
2024/01/02 14:03:16;;;;;;;1.30;1.20;;;11.70;42.70;;;;;;10543034;28;20320;-74
2024/01/02 14:08:21;;;;;;;0.97;0.97;;;11.70;42.50;;;;;;10545324;28;20231;-74
2024/01/02 14:13:27;;;;;;;0.83;0.73;;;11.70;42.50;;;;;;10539908;28;20231;-74
2024/01/02 14:18:31;;;;;;;0.90;0.90;;;11.70;42.30;;;;;;10541030;28;20234;-74
2024/01/02 14:23:46;;;;;;;1.03;1.00;;;11.80;42.30;;;;;;10544968;28;20330;-75
2024/01/02 14:28:56;;;;;;;1.00;1.00;;;11.80;42.60;;;;;;10543015;28;20603;-75
2024/01/02 14:34:16;;;;;;;0.90;0.90;;;11.80;42.20;;;;;;10544679;28;20595;-74
2024/01/02 14:39:51;;;;;;;0.97;0.97;;;11.90;42.60;;;;;;10554023;27;20324;-74
2024/01/02 14:45:02;;;;;;;1.40;1.30;;;11.90;42.60;;;;;;10552299;28;20719;-75
2024/01/02 14:50:06;;;;;;;0.80;0.80;;;12.00;42.40;;;;;;10551731;28;20235;-75
2024/01/02 14:55:26;;;;;;;1.00;1.00;;;12.00;41.80;;;;;;10551583;28;20231;-75
2024/01/02 15:00:32;;;;;;;1.10;1.00;;;12.00;42.30;;;;;;10548638;27;20318;-74
2024/01/02 15:05:41;;;;;;;0.80;0.80;;;11.90;42.00;;;;;;10550401;28;20319;-74
2024/01/02 15:11:05;;;;;;;1.43;1.33;;;12.00;42.20;;;;;;10553361;27;20228;-75
2024/01/02 15:16:21;;;;;;;0.80;0.80;;;12.00;42.20;;;;;;10555084;27;20231;-74
2024/01/02 15:21:34;;;;;;;0.80;0.80;;;12.00;41.70;;;;;;10551054;28;20254;-75
2024/01/02 15:26:44;;;;;;;0.80;0.80;;;12.10;42.10;;;;;;10549397;28;20299;-75
2024/01/02 15:31:49;;;;;;;1.00;1.00;;;12.10;41.80;;;;;;10553264;28;20614;-75
2024/01/02 15:37:08;;;;;;;3.30;1.83;;;12.10;41.80;;;;;;10549556;28;20219;-75
2024/01/02 15:42:23;;;;;;;0.90;0.90;;;12.10;42.20;;;;;;10552245;28;20216;-75
2024/01/02 15:47:38;;;;;;;2.27;2.07;;;12.20;42.20;;;;;;10544175;28;20223;-74
2024/01/02 15:52:45;;;;;;;1.57;1.47;;;12.10;42.50;;;;;;10546924;28;20226;-75
2024/01/02 15:57:53;;;;;;;0.90;0.90;;;12.10;42.20;;;;;;10550956;28;20219;-75
2024/01/02 16:03:34;;;;;;;0.90;0.90;;;12.10;42.50;;;;;;10547790;28;20228;-75
2024/01/02 16:08:51;;;;;;;1.03;1.03;;;12.10;42.80;;;;;;10526584;28;20232;-74
2024/01/02 16:14:26;;;;;;;2.30;2.20;;;12.10;42.70;;;;;;10551850;28;20225;-75
2024/01/02 16:20:03;;;;;;;3.10;2.90;;;12.10;42.90;;;;;;10554437;28;20246;-74
2024/01/02 16:25:33;;;;;;;1.00;1.00;;;12.10;43.10;;;;;;10541489;27;20594;-75
2024/01/02 16:30:54;;;;;;;1.17;1.10;;;12.00;43.60;;;;;;10550696;28;20250;-74
2024/01/02 16:36:12;;;;;;;1.00;1.00;;;12.00;43.40;;;;;;10556324;27;20563;-74
2024/01/02 16:41:22;;;;;;;1.40;1.30;;;11.90;43.50;;;;;;10522114;28;20954;-74
2024/01/02 16:46:28;;;;;;;3.20;3.00;;;11.90;43.80;;;;;;10551722;27;20707;-75
2024/01/02 16:51:32;;;;;;;1.00;0.90;;;11.90;43.70;;;;;;10544889;28;20709;-74
2024/01/02 16:56:36;;;;;;;1.00;1.00;;;11.80;43.30;;;;;;10547972;27;20242;-74
2024/01/02 17:01:42;;;;;;;5.20;4.70;;;11.80;43.50;;;;;;10550164;28;20237;-74
2024/01/02 17:06:46;;;;;;;0.90;0.90;;;11.70;44.00;;;;;;10542075;28;20841;-74
2024/01/02 17:11:49;;;;;;;1.13;0.90;;;11.70;43.90;;;;;;10544934;28;20228;-74
2024/01/02 17:16:54;;;;;;;0.90;0.90;;;11.70;44.10;;;;;;10548677;27;20288;-74
2024/01/02 17:22:00;;;;;;;0.97;0.80;;;11.60;44.30;;;;;;10552368;28;20223;-74
2024/01/02 17:27:03;;;;;;;1.00;0.83;;;11.60;44.00;;;;;;10545103;28;20231;-74
2024/01/02 17:32:08;;;;;;;0.70;0.70;;;11.60;44.10;;;;;;10544405;28;20250;-74
2024/01/02 17:37:12;;;;;;;1.07;0.70;;;11.70;44.40;;;;;;10545636;28;20232;-74
2024/01/02 17:42:17;;;;;;;0.90;0.90;;;11.70;44.10;;;;;;10540351;28;20315;-74
2024/01/02 17:47:22;;;;;;;0.87;0.87;;;11.70;44.00;;;;;;10546696;28;20219;-75
2024/01/02 17:52:25;;;;;;;1.60;1.30;;;11.70;44.20;;;;;;10549539;28;20229;-74
2024/01/02 17:57:32;;;;;;;1.17;1.10;;;11.80;44.10;;;;;;10545465;28;20232;-74
2024/01/02 18:02:42;;;;;;;0.70;0.70;;;11.80;44.30;;;;;;10543923;28;20251;-74
2024/01/02 18:07:57;;;;;;;1.40;1.30;;;11.80;44.50;;;;;;10548968;28;20634;-74
2024/01/02 18:13:06;;;;;;;1.00;1.00;;;11.80;44.40;;;;;;10548911;28;20233;-74
2024/01/02 18:18:20;;;;;;;0.90;0.90;;;11.90;44.50;;;;;;10552272;27;20220;-74
2024/01/02 18:23:32;;;;;;;1.90;1.80;;;11.90;44.70;;;;;;10548349;27;20254;-74
2024/01/02 18:28:48;;;;;;;0.70;0.70;;;11.90;44.40;;;;;;10549885;28;20226;-74
2024/01/02 18:34:06;;;;;;;2.27;1.40;;;11.90;44.50;;;;;;10550869;28;20234;-74
2024/01/02 18:39:21;;;;;;;1.70;1.60;;;11.90;44.70;;;;;;10549981;28;20688;-74
2024/01/02 18:44:35;;;;;;;1.77;0.90;;;11.90;44.50;;;;;;10554450;28;20598;-74
2024/01/02 18:49:44;;;;;;;1.07;0.70;;;11.90;44.30;;;;;;10549452;28;20227;-74
2024/01/02 18:54:52;;;;;;;0.90;0.90;;;12.00;44.30;;;;;;10553354;28;20234;-74
2024/01/02 18:59:56;;;;;;;1.80;1.70;;;12.00;44.30;;;;;;10551283;27;20255;-74
2024/01/02 19:05:04;;;;;;;1.43;1.33;;;12.00;44.00;;;;;;10549533;28;20241;-74
2024/01/02 19:10:10;;;;;;;1.40;1.30;;;12.00;44.20;;;;;;10551077;28;20233;-75
2024/01/02 19:15:13;;;;;;;0.80;0.80;;;12.00;44.00;;;;;;10548235;27;20349;-75
2024/01/02 19:20:19;;;;;;;0.70;0.70;;;12.00;44.20;;;;;;10543088;27;20235;-74
2024/01/02 19:25:23;;;;;;;0.90;0.90;;;12.00;44.30;;;;;;10549606;28;20646;-75
2024/01/02 19:30:27;;;;;;;0.90;0.80;;;12.10;44.20;;;;;;10548890;28;20223;-74
2024/01/02 19:35:32;;;;;;;0.97;0.97;;;12.00;44.30;;;;;;10550584;27;20230;-75
2024/01/02 19:40:36;;;;;;;0.90;0.90;;;12.00;44.50;;;;;;10552735;27;20242;-75
2024/01/02 19:45:40;;;;;;;2.43;2.10;;;12.00;44.70;;;;;;10556886;27;20227;-74
2024/01/02 19:50:46;;;;;;;1.00;1.00;;;12.00;44.70;;;;;;10547124;27;20231;-75
2024/01/02 19:55:49;;;;;;;1.90;1.47;;;12.00;44.80;;;;;;10549642;28;20646;-75
2024/01/02 20:00:53;;;;;;;1.43;0.83;;;12.00;44.70;;;;;;10552588;28;20325;-75
2024/01/02 20:05:58;;;;;;;0.93;0.93;;;12.00;44.80;;;;;;10548026;27;20227;-75
2024/01/02 20:11:10;;;;;;;0.77;0.77;;;12.00;45.00;;;;;;10547643;27;20231;-75
2024/01/02 20:16:46;;;;;;;0.60;0.60;;;12.00;45.90;;;;;;10544540;27;20233;-75
2024/01/02 20:21:51;;;;;;;0.50;0.50;;;12.00;45.90;;;;;;10549621;27;20231;-74
2024/01/02 20:26:58;;;;;;;1.37;0.80;;;12.00;45.10;;;;;;10549659;28;20319;-74
2024/01/02 20:32:01;;;;;;;0.60;0.60;;;12.00;45.00;;;;;;10550172;27;20235;-74
2024/01/02 20:37:38;;;;;;;0.70;0.70;;;12.10;45.60;;;;;;10543589;27;20224;-74
2024/01/02 20:42:43;;;;;;;0.50;0.50;;;12.10;46.00;;;;;;10545512;27;20709;-75
2024/01/02 20:47:49;;;;;;;0.53;0.50;;;12.20;45.30;;;;;;10549515;28;20245;-74
2024/01/02 20:52:57;;;;;;;0.70;0.70;;;12.20;44.90;;;;;;10545884;28;20223;-74
2024/01/02 20:58:13;;;;;;;0.40;0.40;;;12.30;44.80;;;;;;10545989;28;20621;-75
2024/01/02 21:03:16;;;;;;;0.70;0.70;;;12.40;44.80;;;;;;10543060;28;20215;-75
2024/01/02 21:08:36;;;;;;;1.40;1.30;;;12.40;44.60;;;;;;10542669;27;20335;-74
2024/01/02 21:13:43;;;;;;;0.80;0.80;;;12.50;44.80;;;;;;10543189;28;20227;-74
2024/01/02 21:18:49;;;;;;;0.73;0.70;;;12.60;44.60;;;;;;10546304;28;20255;-74
2024/01/02 21:23:53;;;;;;;0.60;0.60;;;12.60;44.30;;;;;;10547986;28;20230;-75
2024/01/02 21:28:58;;;;;;;0.83;0.60;;;12.70;44.10;;;;;;10544928;27;20235;-74
2024/01/02 21:34:01;;;;;;;0.50;0.50;;;12.80;44.00;;;;;;10549968;28;20229;-74
2024/01/02 21:39:06;;;;;;;0.50;0.50;;;13.00;43.80;;;;;;10544179;27;20301;-74
2024/01/02 21:44:22;;;;;;;0.50;0.50;;;13.00;43.50;;;;;;10547490;28;20280;-75
2024/01/02 21:49:31;;;;;;;0.40;0.40;;;13.10;42.70;;;;;;10548756;28;20237;-75
2024/01/02 21:54:44;;;;;;;0.40;0.40;;;13.20;42.70;;;;;;10540326;28;20229;-75
2024/01/02 21:59:49;;;;;;;0.50;0.50;;;13.30;42.80;;;;;;10547584;28;20237;-74
2024/01/02 22:04:52;;;;;;;0.50;0.50;;;13.40;42.90;;;;;;10541007;28;20816;-75
2024/01/02 22:09:55;;;;;;;0.43;0.43;;;13.40;42.90;;;;;;10539663;28;20238;-75
2024/01/02 22:15:01;;;;;;;0.50;0.50;;;13.40;42.90;;;;;;10542086;28;20261;-75
2024/01/02 22:20:20;;;;;;;0.60;0.60;;;13.50;42.50;;;;;;10537231;28;20232;-75
2024/01/02 22:25:42;;;;;;;0.50;0.50;;;13.50;42.00;;;;;;10546690;28;20230;-74
2024/01/02 22:36:23;;;;;;;0.57;0.57;;;13.50;41.80;;;;;;10398457;28;20591;-73
2024/01/02 22:41:27;;;;;;;0.60;0.60;;;13.50;41.50;;;;;;10380506;28;20233;-73
2024/01/02 22:46:30;;;;;;;0.50;0.50;;;13.50;42.00;;;;;;10381613;28;20236;-73
2024/01/02 22:51:34;;;;;;;0.60;0.60;;;13.50;41.90;;;;;;10384776;28;20599;-73
2024/01/02 22:56:38;;;;;;;0.60;0.60;;;13.50;41.60;;;;;;10384312;28;20226;-73
2024/01/02 23:01:41;;;;;;;0.47;0.47;;;13.50;41.50;;;;;;10382686;28;20271;-73
2024/01/02 23:06:47;;;;;;;0.50;0.50;;;13.60;41.80;;;;;;10380239;28;20229;-73
2024/01/02 23:11:50;;;;;;;0.60;0.60;;;13.60;41.40;;;;;;10366161;28;20885;-73
2024/01/02 23:16:55;;;;;;;0.50;0.50;;;13.60;41.60;;;;;;10377210;28;20231;-73
2024/01/02 23:22:00;;;;;;;0.50;0.50;;;13.60;41.50;;;;;;10375656;28;20218;-73
2024/01/02 23:27:05;;;;;;;0.53;0.53;;;13.60;41.10;;;;;;10379642;28;20214;-73
2024/01/02 23:32:11;;;;;;;0.50;0.50;;;13.60;41.20;;;;;;10386914;28;20240;-73
2024/01/02 23:37:25;;;;;;;0.50;0.50;;;13.60;41.10;;;;;;10382887;28;20242;-73
2024/01/02 23:42:33;;;;;;;0.40;0.40;;;13.60;40.70;;;;;;10374009;28;20601;-73
2024/01/02 23:47:36;;;;;;;0.40;0.40;;;13.60;41.00;;;;;;10354822;28;20301;-73
2024/01/02 23:52:40;;;;;;;1.23;0.50;;;13.60;41.20;;;;;;10356845;28;20234;-73
2024/01/02 23:57:47;;;;;;;0.67;0.50;;;13.60;41.10;;;;;;10356523;28;20793;-73
